sensor_id;sensor_type;location;lat;lon;timestamp;pressure;altitude;pressure_sealevel;temperature;humidity
61026;BME280;46911;32.650;-16.902;2022-07-22T00:01:52;101700.28;;;21.34;67.66
61026;BME280;46911;32.650;-16.902;2022-07-22T00:03:53;101676.22;;;21.21;68.31
61026;BME280;46911;32.650;-16.902;2022-07-22T00:05:59;101679.94;;;21.20;68.82
61026;BME280;46911;32.650;-16.902;2022-07-22T00:08:00;101682.97;;;21.17;68.73
61026;BME280;46911;32.650;-16.902;2022-07-22T00:10:01;101688.66;;;21.23;68.41
61026;BME280;46911;32.650;-16.902;2022-07-22T00:12:05;101685.38;;;21.20;68.31
61026;BME280;46911;32.650;-16.902;2022-07-22T00:14:08;101683.75;;;21.27;67.94
61026;BME280;46911;32.650;-16.902;2022-07-22T00:16:16;101678.78;;;21.22;67.86
61026;BME280;46911;32.650;-16.902;2022-07-22T00:18:17;101675.56;;;21.09;68.50
61026;BME280;46911;32.650;-16.902;2022-07-22T00:20:18;101667.59;;;21.07;68.71
61026;BME280;46911;32.650;-16.902;2022-07-22T00:22:19;101684.28;;;21.13;69.78
61026;BME280;46911;32.650;-16.902;2022-07-22T00:24:20;101680.16;;;21.09;71.32
61026;BME280;46911;32.650;-16.902;2022-07-22T00:26:21;101648.38;;;20.91;72.30
61026;BME280;46911;32.650;-16.902;2022-07-22T00:28:24;101664.16;;;21.05;72.88
61026;BME280;46911;32.650;-16.902;2022-07-22T00:30:27;101658.72;;;21.15;73.47
61026;BME280;46911;32.650;-16.902;2022-07-22T00:32:28;101674.59;;;21.28;72.62
61026;BME280;46911;32.650;-16.902;2022-07-22T00:34:35;101675.91;;;21.24;71.55
61026;BME280;46911;32.650;-16.902;2022-07-22T00:36:40;101655.28;;;21.13;71.48
61026;BME280;46911;32.650;-16.902;2022-07-22T00:38:44;101666.31;;;21.30;72.03
61026;BME280;46911;32.650;-16.902;2022-07-22T00:40:45;101666.78;;;21.25;72.23
61026;BME280;46911;32.650;-16.902;2022-07-22T00:42:46;101664.81;;;21.17;72.13
61026;BME280;46911;32.650;-16.902;2022-07-22T00:44:50;101648.84;;;21.14;71.24
61026;BME280;46911;32.650;-16.902;2022-07-22T00:46:52;101658.25;;;21.20;70.34
61026;BME280;46911;32.650;-16.902;2022-07-22T00:48:59;101652.88;;;21.10;70.33
61026;BME280;46911;32.650;-16.902;2022-07-22T00:51:02;101640.75;;;21.04;71.22
61026;BME280;46911;32.650;-16.902;2022-07-22T00:53:06;101646.47;;;21.01;72.18
61026;BME280;46911;32.650;-16.902;2022-07-22T00:55:07;101654.47;;;21.03;72.13
61026;BME280;46911;32.650;-16.902;2022-07-22T00:57:10;101657.75;;;21.06;72.20
61026;BME280;46911;32.650;-16.902;2022-07-22T00:59:13;101666.03;;;21.05;72.48
61026;BME280;46911;32.650;-16.902;2022-07-22T01:01:17;101647.19;;;21.03;71.93
61026;BME280;46911;32.650;-16.902;2022-07-22T01:03:18;101644.50;;;21.03;71.60
61026;BME280;46911;32.650;-16.902;2022-07-22T01:05:19;101630.53;;;20.98;71.14
61026;BME280;46911;32.650;-16.902;2022-07-22T01:07:20;101642.22;;;20.99;70.73
61026;BME280;46911;32.650;-16.902;2022-07-22T01:09:23;101632.81;;;20.93;70.49
61026;BME280;46911;32.650;-16.902;2022-07-22T01:11:25;101635.84;;;20.90;69.89
61026;BME280;46911;32.650;-16.902;2022-07-22T01:13:28;101646.38;;;20.93;69.99
61026;BME280;46911;32.650;-16.902;2022-07-22T01:15:36;101646.69;;;20.90;69.86
61026;BME280;46911;32.650;-16.902;2022-07-22T01:17:39;101629.44;;;20.81;70.04
61026;BME280;46911;32.650;-16.902;2022-07-22T01:19:43;101633.03;;;20.82;69.78
61026;BME280;46911;32.650;-16.902;2022-07-22T01:21:47;101644.91;;;20.99;68.58
61026;BME280;46911;32.650;-16.902;2022-07-22T01:23:48;101623.28;;;20.89;68.68
61026;BME280;46911;32.650;-16.902;2022-07-22T01:25:51;101642.06;;;21.00;68.49
61026;BME280;46911;32.650;-16.902;2022-07-22T01:27:53;101637.34;;;21.02;68.42
61026;BME280;46911;32.650;-16.902;2022-07-22T01:29:56;101641.16;;;21.10;68.87
61026;BME280;46911;32.650;-16.902;2022-07-22T01:31:59;101644.28;;;21.15;68.86
61026;BME280;46911;32.650;-16.902;2022-07-22T01:34:00;101638.31;;;21.11;68.41
61026;BME280;46911;32.650;-16.902;2022-07-22T01:36:07;101624.19;;;21.07;68.31
61026;BME280;46911;32.650;-16.902;2022-07-22T01:38:14;101656.69;;;21.17;69.07
61026;BME280;46911;32.650;-16.902;2022-07-22T01:40:15;101649.41;;;21.18;70.03
61026;BME280;46911;32.650;-16.902;2022-07-22T01:42:18;101645.97;;;21.16;70.42
61026;BME280;46911;32.650;-16.902;2022-07-22T01:44:19;101641.72;;;21.13;71.20
61026;BME280;46911;32.650;-16.902;2022-07-22T01:46:20;101655.13;;;21.15;70.86
61026;BME280;46911;32.650;-16.902;2022-07-22T01:48:24;101638.56;;;21.18;70.55
61026;BME280;46911;32.650;-16.902;2022-07-22T01:50:25;101643.69;;;21.21;70.85
61026;BME280;46911;32.650;-16.902;2022-07-22T01:52:28;101635.19;;;21.06;68.55
61026;BME280;46911;32.650;-16.902;2022-07-22T01:54:29;101624.03;;;21.09;68.33
61026;BME280;46911;32.650;-16.902;2022-07-22T01:56:30;101632.72;;;21.13;68.36
61026;BME280;46911;32.650;-16.902;2022-07-22T01:58:34;101628.16;;;21.13;68.51
61026;BME280;46911;32.650;-16.902;2022-07-22T02:00:45;101640.66;;;21.24;68.06
61026;BME280;46911;32.650;-16.902;2022-07-22T02:02:48;101635.63;;;21.29;67.53
61026;BME280;46911;32.650;-16.902;2022-07-22T02:04:53;101612.84;;;21.22;66.99
61026;BME280;46911;32.650;-16.902;2022-07-22T02:06:56;101624.16;;;21.35;67.09
61026;BME280;46911;32.650;-16.902;2022-07-22T02:08:57;101577.75;;;21.11;67.25
61026;BME280;46911;32.650;-16.902;2022-07-22T02:11:19;101602.50;;;21.26;68.25
61026;BME280;46911;32.650;-16.902;2022-07-22T02:13:30;101619.41;;;21.37;69.64
61026;BME280;46911;32.650;-16.902;2022-07-22T02:15:36;101600.09;;;21.22;69.76
61026;BME280;46911;32.650;-16.902;2022-07-22T02:17:37;101599.25;;;21.22;69.73
61026;BME280;46911;32.650;-16.902;2022-07-22T02:19:42;101617.88;;;21.35;70.26
61026;BME280;46911;32.650;-16.902;2022-07-22T02:21:46;101608.88;;;21.34;69.92
61026;BME280;46911;32.650;-16.902;2022-07-22T02:23:47;101587.38;;;21.23;70.08
61026;BME280;46911;32.650;-16.902;2022-07-22T02:25:53;101588.69;;;21.19;71.12
61026;BME280;46911;32.650;-16.902;2022-07-22T02:27:54;101592.13;;;21.21;71.32
61026;BME280;46911;32.650;-16.902;2022-07-22T02:29:55;101602.97;;;21.21;71.67
61026;BME280;46911;32.650;-16.902;2022-07-22T02:31:56;101591.88;;;21.14;71.91
61026;BME280;46911;32.650;-16.902;2022-07-22T02:33:57;101595.03;;;21.10;72.60
61026;BME280;46911;32.650;-16.902;2022-07-22T02:36:04;101601.63;;;21.07;72.12
61026;BME280;46911;32.650;-16.902;2022-07-22T02:38:09;101606.19;;;21.06;72.42
61026;BME280;46911;32.650;-16.902;2022-07-22T02:40:13;101591.63;;;21.07;71.44
61026;BME280;46911;32.650;-16.902;2022-07-22T02:42:17;101584.41;;;20.98;70.45
61026;BME280;46911;32.650;-16.902;2022-07-22T02:44:24;101588.97;;;20.98;70.24
61026;BME280;46911;32.650;-16.902;2022-07-22T02:46:27;101585.00;;;20.92;70.22
61026;BME280;46911;32.650;-16.902;2022-07-22T02:48:37;101583.84;;;20.95;70.01
61026;BME280;46911;32.650;-16.902;2022-07-22T02:50:38;101589.28;;;20.95;70.40
61026;BME280;46911;32.650;-16.902;2022-07-22T02:52:41;101574.91;;;20.84;70.59
61026;BME280;46911;32.650;-16.902;2022-07-22T02:54:45;101564.69;;;20.78;71.31
61026;BME280;46911;32.650;-16.902;2022-07-22T02:56:45;101573.91;;;20.85;72.12
61026;BME280;46911;32.650;-16.902;2022-07-22T02:58:51;101567.09;;;20.81;72.14
61026;BME280;46911;32.650;-16.902;2022-07-22T03:00:53;101577.34;;;20.87;70.93
61026;BME280;46911;32.650;-16.902;2022-07-22T03:02:54;101568.56;;;20.94;70.00
61026;BME280;46911;32.650;-16.902;2022-07-22T03:04:55;101549.66;;;20.84;68.54
61026;BME280;46911;32.650;-16.902;2022-07-22T03:06:59;101563.06;;;20.85;68.65
61026;BME280;46911;32.650;-16.902;2022-07-22T03:09:02;101555.31;;;20.72;68.43
61026;BME280;46911;32.650;-16.902;2022-07-22T03:11:06;101563.44;;;20.72;68.29
61026;BME280;46911;32.650;-16.902;2022-07-22T03:13:07;101553.22;;;20.56;68.25
61026;BME280;46911;32.650;-16.902;2022-07-22T03:15:08;101572.56;;;20.62;69.10
61026;BME280;46911;32.650;-16.902;2022-07-22T03:17:10;101558.06;;;20.53;68.73
61026;BME280;46911;32.650;-16.902;2022-07-22T03:19:12;101546.72;;;20.39;68.84
61026;BME280;46911;32.650;-16.902;2022-07-22T03:21:18;101546.75;;;20.30;68.97
61026;BME280;46911;32.650;-16.902;2022-07-22T03:23:19;101552.91;;;20.22;69.97
61026;BME280;46911;32.650;-16.902;2022-07-22T03:25:20;101547.06;;;20.17;70.10
61026;BME280;46911;32.650;-16.902;2022-07-22T03:27:21;101540.81;;;20.06;70.88
61026;BME280;46911;32.650;-16.902;2022-07-22T03:29:25;101554.34;;;20.06;70.78
61026;BME280;46911;32.650;-16.902;2022-07-22T03:31:29;101539.44;;;19.93;71.29
61026;BME280;46911;32.650;-16.902;2022-07-22T03:33:30;101537.16;;;19.88;70.83
61026;BME280;46911;32.650;-16.902;2022-07-22T03:35:31;101546.00;;;19.90;71.06
61026;BME280;46911;32.650;-16.902;2022-07-22T03:37:37;101560.78;;;19.96;70.83
61026;BME280;46911;32.650;-16.902;2022-07-22T03:39:40;101552.66;;;19.96;70.25
61026;BME280;46911;32.650;-16.902;2022-07-22T03:41:41;101546.25;;;19.97;69.97
61026;BME280;46911;32.650;-16.902;2022-07-22T03:43:44;101544.81;;;20.02;70.35
61026;BME280;46911;32.650;-16.902;2022-07-22T03:45:47;101530.88;;;19.87;70.25
61026;BME280;46911;32.650;-16.902;2022-07-22T03:47:50;101545.13;;;19.99;70.23
61026;BME280;46911;32.650;-16.902;2022-07-22T03:49:52;101540.00;;;19.86;70.55
61026;BME280;46911;32.650;-16.902;2022-07-22T03:52:00;101517.19;;;19.69;70.68
61026;BME280;46911;32.650;-16.902;2022-07-22T03:54:11;101539.41;;;19.73;70.68
61026;BME280;46911;32.650;-16.902;2022-07-22T03:56:16;101541.69;;;19.68;70.74
61026;BME280;46911;32.650;-16.902;2022-07-22T03:58:20;101546.84;;;19.71;70.55
61026;BME280;46911;32.650;-16.902;2022-07-22T04:00:21;101527.75;;;19.63;70.67
61026;BME280;46911;32.650;-16.902;2022-07-22T04:02:24;101529.16;;;19.67;70.85
61026;BME280;46911;32.650;-16.902;2022-07-22T04:04:29;101526.19;;;19.70;70.45
61026;BME280;46911;32.650;-16.902;2022-07-22T04:06:33;101544.56;;;19.86;70.80
61026;BME280;46911;32.650;-16.902;2022-07-22T04:08:41;101541.72;;;19.87;70.78
61026;BME280;46911;32.650;-16.902;2022-07-22T04:10:45;101519.03;;;19.79;70.48
61026;BME280;46911;32.650;-16.902;2022-07-22T04:12:46;101512.34;;;19.83;70.10
61026;BME280;46911;32.650;-16.902;2022-07-22T04:14:52;101539.41;;;20.02;69.42
61026;BME280;46911;32.650;-16.902;2022-07-22T04:16:55;101516.16;;;20.00;69.06
61026;BME280;46911;32.650;-16.902;2022-07-22T04:19:01;101534.56;;;20.06;69.18
61026;BME280;46911;32.650;-16.902;2022-07-22T04:21:34;101527.44;;;20.05;69.40
61026;BME280;46911;32.650;-16.902;2022-07-22T04:23:42;101528.16;;;19.97;69.53
61026;BME280;46911;32.650;-16.902;2022-07-22T04:25:49;101506.09;;;19.82;69.77
61026;BME280;46911;32.650;-16.902;2022-07-22T04:27:50;101506.78;;;19.74;70.34
61026;BME280;46911;32.650;-16.902;2022-07-22T04:29:53;101534.88;;;19.83;70.66
61026;BME280;46911;32.650;-16.902;2022-07-22T04:31:54;101531.88;;;19.77;70.68
61026;BME280;46911;32.650;-16.902;2022-07-22T04:33:55;101509.53;;;19.55;70.88
61026;BME280;46911;32.650;-16.902;2022-07-22T04:35:59;101485.59;;;19.31;71.33
61026;BME280;46911;32.650;-16.902;2022-07-22T04:37:59;101512.97;;;19.37;70.97
61026;BME280;46911;32.650;-16.902;2022-07-22T04:40:01;101514.97;;;19.35;70.45
61026;BME280;46911;32.650;-16.902;2022-07-22T04:42:05;101507.53;;;19.28;70.11
61026;BME280;46911;32.650;-16.902;2022-07-22T04:44:07;101532.19;;;19.34;70.66
61026;BME280;46911;32.650;-16.902;2022-07-22T04:46:08;101519.25;;;19.28;70.25
61026;BME280;46911;32.650;-16.902;2022-07-22T04:48:16;101527.75;;;19.33;70.52
61026;BME280;46911;32.650;-16.902;2022-07-22T04:50:23;101506.13;;;19.33;69.58
61026;BME280;46911;32.650;-16.902;2022-07-22T04:52:33;101504.41;;;19.42;69.18
61026;BME280;46911;32.650;-16.902;2022-07-22T04:54:38;101524.75;;;19.56;68.79
61026;BME280;46911;32.650;-16.902;2022-07-22T04:56:39;101498.56;;;19.56;68.50
61026;BME280;46911;32.650;-16.902;2022-07-22T04:58:43;101515.78;;;19.65;68.25
61026;BME280;46911;32.650;-16.902;2022-07-22T05:00:47;101506.09;;;19.63;68.55
61026;BME280;46911;32.650;-16.902;2022-07-22T05:02:48;101513.78;;;19.67;68.42
61026;BME280;46911;32.650;-16.902;2022-07-22T05:04:49;101496.56;;;19.58;67.88
61026;BME280;46911;32.650;-16.902;2022-07-22T05:06:50;101513.22;;;19.64;68.01
61026;BME280;46911;32.650;-16.902;2022-07-22T05:08:53;101511.94;;;19.58;68.59
61026;BME280;46911;32.650;-16.902;2022-07-22T05:10:56;101496.56;;;19.49;68.95
61026;BME280;46911;32.650;-16.902;2022-07-22T05:13:03;101500.72;;;19.43;69.14
61026;BME280;46911;32.650;-16.902;2022-07-22T05:15:08;101519.94;;;19.50;69.68
61026;BME280;46911;32.650;-16.902;2022-07-22T05:17:11;101515.25;;;19.42;70.10
61026;BME280;46911;32.650;-16.902;2022-07-22T05:19:23;101521.63;;;19.41;71.08
61026;BME280;46911;32.650;-16.902;2022-07-22T05:21:24;101525.78;;;19.35;71.24
61026;BME280;46911;32.650;-16.902;2022-07-22T05:23:25;101516.66;;;19.27;71.68
61026;BME280;46911;32.650;-16.902;2022-07-22T05:25:32;101499.44;;;19.08;72.15
61026;BME280;46911;32.650;-16.902;2022-07-22T05:27:35;101501.41;;;19.06;72.32
61026;BME280;46911;32.650;-16.902;2022-07-22T05:29:36;101519.34;;;19.07;71.98
61026;BME280;46911;32.650;-16.902;2022-07-22T05:31:37;101506.09;;;18.94;71.95
61026;BME280;46911;32.650;-16.902;2022-07-22T05:33:38;101521.47;;;18.94;72.07
61026;BME280;46911;32.650;-16.902;2022-07-22T05:36:02;101515.44;;;18.80;71.96
61026;BME280;46911;32.650;-16.902;2022-07-22T05:38:13;101526.69;;;18.85;72.16
61026;BME280;46911;32.650;-16.902;2022-07-22T05:40:16;101519.53;;;18.74;72.46
61026;BME280;46911;32.650;-16.902;2022-07-22T05:42:17;101525.94;;;18.73;73.19
61026;BME280;46911;32.650;-16.902;2022-07-22T05:44:20;101531.06;;;18.77;73.06
61026;BME280;46911;32.650;-16.902;2022-07-22T05:46:23;101524.53;;;18.69;73.47
61026;BME280;46911;32.650;-16.902;2022-07-22T05:48:24;101524.63;;;18.68;73.63
61026;BME280;46911;32.650;-16.902;2022-07-22T05:50:27;101523.94;;;18.66;73.68
61026;BME280;46911;32.650;-16.902;2022-07-22T05:52:30;101533.03;;;18.65;74.15
61026;BME280;46911;32.650;-16.902;2022-07-22T05:54:31;101529.88;;;18.60;74.32
61026;BME280;46911;32.650;-16.902;2022-07-22T05:56:34;101538.13;;;18.58;74.61
61026;BME280;46911;32.650;-16.902;2022-07-22T05:58:35;101530.84;;;18.49;74.81
61026;BME280;46911;32.650;-16.902;2022-07-22T06:00:38;101531.56;;;18.51;75.48
61026;BME280;46911;32.650;-16.902;2022-07-22T06:02:42;101542.06;;;18.44;75.63
61026;BME280;46911;32.650;-16.902;2022-07-22T06:04:50;101545.59;;;18.45;75.67
61026;BME280;46911;32.650;-16.902;2022-07-22T06:06:55;101547.19;;;18.47;75.82
61026;BME280;46911;32.650;-16.902;2022-07-22T06:08:55;101541.59;;;18.39;75.79
61026;BME280;46911;32.650;-16.902;2022-07-22T06:10:59;101531.78;;;18.38;75.79
61026;BME280;46911;32.650;-16.902;2022-07-22T06:13:01;101550.72;;;18.48;75.25
61026;BME280;46911;32.650;-16.902;2022-07-22T06:15:07;101561.66;;;18.46;74.96
61026;BME280;46911;32.650;-16.902;2022-07-22T06:17:14;101555.72;;;18.43;74.00
61026;BME280;46911;32.650;-16.902;2022-07-22T06:19:17;101543.72;;;18.35;74.05
61026;BME280;46911;32.650;-16.902;2022-07-22T06:21:21;101563.09;;;18.50;73.68
61026;BME280;46911;32.650;-16.902;2022-07-22T06:23:24;101562.25;;;18.50;73.72
61026;BME280;46911;32.650;-16.902;2022-07-22T06:25:25;101563.38;;;18.47;73.60
61026;BME280;46911;32.650;-16.902;2022-07-22T06:27:26;101550.88;;;18.46;73.43
61026;BME280;46911;32.650;-16.902;2022-07-22T06:29:28;101572.66;;;18.54;72.88
61026;BME280;46911;32.650;-16.902;2022-07-22T06:31:29;101579.78;;;18.55;72.63
61026;BME280;46911;32.650;-16.902;2022-07-22T06:33:30;101558.00;;;18.47;72.66
61026;BME280;46911;32.650;-16.902;2022-07-22T06:35:40;101581.06;;;18.61;72.71
61026;BME280;46911;32.650;-16.902;2022-07-22T06:37:44;101572.25;;;18.59;72.71
61026;BME280;46911;32.650;-16.902;2022-07-22T06:39:45;101587.41;;;18.81;73.23
61026;BME280;46911;32.650;-16.902;2022-07-22T06:41:51;101579.88;;;18.85;73.17
61026;BME280;46911;32.650;-16.902;2022-07-22T06:44:15;101596.94;;;19.16;72.81
61026;BME280;46911;32.650;-16.902;2022-07-22T06:46:21;101596.66;;;19.29;72.57
61026;BME280;46911;32.650;-16.902;2022-07-22T06:48:26;101584.44;;;19.35;72.03
61026;BME280;46911;32.650;-16.902;2022-07-22T06:50:29;101599.84;;;19.54;71.99
61026;BME280;46911;32.650;-16.902;2022-07-22T06:52:31;101589.41;;;19.49;71.51
61026;BME280;46911;32.650;-16.902;2022-07-22T06:54:36;101596.97;;;19.55;71.48
61026;BME280;46911;32.650;-16.902;2022-07-22T06:56:37;101608.66;;;19.76;71.04
61026;BME280;46911;32.650;-16.902;2022-07-22T06:58:41;101599.56;;;19.77;71.13
61026;BME280;46911;32.650;-16.902;2022-07-22T07:00:46;101617.63;;;20.05;71.16
61026;BME280;46911;32.650;-16.902;2022-07-22T07:03:10;101616.63;;;20.26;71.10
61026;BME280;46911;32.650;-16.902;2022-07-22T07:05:11;101627.41;;;20.46;71.27
61026;BME280;46911;32.650;-16.902;2022-07-22T07:07:14;101613.97;;;20.54;70.59
61026;BME280;46911;32.650;-16.902;2022-07-22T07:09:35;101632.16;;;20.81;70.25
61026;BME280;46911;32.650;-16.902;2022-07-22T07:11:44;101628.56;;;20.90;70.24
61026;BME280;46911;32.650;-16.902;2022-07-22T07:13:51;101595.75;;;20.84;68.41
61026;BME280;46911;32.650;-16.902;2022-07-22T07:15:55;101635.13;;;21.16;67.63
61026;BME280;46911;32.650;-16.902;2022-07-22T07:17:59;101638.50;;;21.28;66.72
61026;BME280;46911;32.650;-16.902;2022-07-22T07:20:00;101635.56;;;21.39;66.06
61026;BME280;46911;32.650;-16.902;2022-07-22T07:22:04;101642.84;;;21.38;65.45
61026;BME280;46911;32.650;-16.902;2022-07-22T07:24:07;101646.13;;;21.42;65.18
61026;BME280;46911;32.650;-16.902;2022-07-22T07:26:10;101627.88;;;21.34;64.97
61026;BME280;46911;32.650;-16.902;2022-07-22T07:28:14;101643.19;;;21.53;64.49
61026;BME280;46911;32.650;-16.902;2022-07-22T07:30:30;101638.16;;;21.59;64.35
61026;BME280;46911;32.650;-16.902;2022-07-22T07:32:31;101646.84;;;21.80;63.71
61026;BME280;46911;32.650;-16.902;2022-07-22T07:34:32;101646.09;;;21.88;63.64
61026;BME280;46911;32.650;-16.902;2022-07-22T07:36:35;101627.78;;;21.90;62.64
61026;BME280;46911;32.650;-16.902;2022-07-22T07:38:36;101652.75;;;22.12;61.91
61026;BME280;46911;32.650;-16.902;2022-07-22T07:40:39;101644.22;;;22.06;62.05
61026;BME280;46911;32.650;-16.902;2022-07-22T07:42:43;101646.56;;;22.28;61.79
61026;BME280;46911;32.650;-16.902;2022-07-22T07:44:46;101638.72;;;22.24;63.00
61026;BME280;46911;32.650;-16.902;2022-07-22T07:46:52;101644.53;;;22.48;63.53
61026;BME280;46911;32.650;-16.902;2022-07-22T07:48:52;101626.88;;;22.52;62.95
61026;BME280;46911;32.650;-16.902;2022-07-22T07:50:58;101630.69;;;22.67;61.68
61026;BME280;46911;32.650;-16.902;2022-07-22T07:52:59;101630.78;;;22.84;60.46
61026;BME280;46911;32.650;-16.902;2022-07-22T07:55:01;101649.06;;;23.00;59.58
61026;BME280;46911;32.650;-16.902;2022-07-22T07:57:02;101644.72;;;23.15;59.25
61026;BME280;46911;32.650;-16.902;2022-07-22T07:59:03;101643.91;;;23.31;58.54
61026;BME280;46911;32.650;-16.902;2022-07-22T08:01:04;101644.81;;;23.48;58.10
61026;BME280;46911;32.650;-16.902;2022-07-22T08:03:05;101626.94;;;23.54;57.75
61026;BME280;46911;32.650;-16.902;2022-07-22T08:05:10;101634.47;;;23.85;57.94
61026;BME280;46911;32.650;-16.902;2022-07-22T08:07:12;101624.09;;;23.80;57.82
61026;BME280;46911;32.650;-16.902;2022-07-22T08:09:18;101612.50;;;23.78;58.40
61026;BME280;46911;32.650;-16.902;2022-07-22T08:11:21;101629.22;;;23.92;58.30
61026;BME280;46911;32.650;-16.902;2022-07-22T08:13:41;101623.94;;;23.98;57.94
61026;BME280;46911;32.650;-16.902;2022-07-22T08:16:04;101617.09;;;23.86;58.05
61026;BME280;46911;32.650;-16.902;2022-07-22T08:18:09;101615.59;;;23.92;58.03
61026;BME280;46911;32.650;-16.902;2022-07-22T08:20:10;101633.16;;;23.97;59.62
61026;BME280;46911;32.650;-16.902;2022-07-22T08:22:10;101624.06;;;23.88;59.06
61026;BME280;46911;32.650;-16.902;2022-07-22T08:24:14;101614.38;;;23.86;58.99
61026;BME280;46911;32.650;-16.902;2022-07-22T08:26:15;101626.50;;;24.00;58.94
61026;BME280;46911;32.650;-16.902;2022-07-22T08:28:19;101627.50;;;24.07;59.46
61026;BME280;46911;32.650;-16.902;2022-07-22T08:30:22;101624.44;;;24.10;59.86
61026;BME280;46911;32.650;-16.902;2022-07-22T08:32:24;101626.16;;;24.11;60.31
61026;BME280;46911;32.650;-16.902;2022-07-22T08:34:25;101620.88;;;24.01;60.93
61026;BME280;46911;32.650;-16.902;2022-07-22T08:36:33;101611.47;;;23.87;61.39
61026;BME280;46911;32.650;-16.902;2022-07-22T08:38:38;101609.59;;;23.71;61.90
61026;BME280;46911;32.650;-16.902;2022-07-22T08:40:42;101613.78;;;23.33;63.13
61026;BME280;46911;32.650;-16.902;2022-07-22T08:42:48;101602.53;;;22.85;64.36
61026;BME280;46911;32.650;-16.902;2022-07-22T08:44:52;101602.28;;;22.62;65.29
61026;BME280;46911;32.650;-16.902;2022-07-22T08:46:59;101616.56;;;22.55;65.54
61026;BME280;46911;32.650;-16.902;2022-07-22T08:49:23;101598.47;;;22.46;65.66
61026;BME280;46911;32.650;-16.902;2022-07-22T08:51:42;101589.47;;;22.19;66.24
61026;BME280;46911;32.650;-16.902;2022-07-22T08:53:57;101601.06;;;22.03;67.04
61026;BME280;46911;32.650;-16.902;2022-07-22T08:56:01;101619.16;;;21.95;67.54
61026;BME280;46911;32.650;-16.902;2022-07-22T08:58:02;101612.78;;;21.86;67.85
61026;BME280;46911;32.650;-16.902;2022-07-22T09:00:10;101610.22;;;21.84;67.82
61026;BME280;46911;32.650;-16.902;2022-07-22T09:02:12;101618.69;;;21.81;68.23
61026;BME280;46911;32.650;-16.902;2022-07-22T09:04:15;101615.91;;;21.73;67.95
61026;BME280;46911;32.650;-16.902;2022-07-22T09:06:22;101595.56;;;21.59;68.00
61026;BME280;46911;32.650;-16.902;2022-07-22T09:08:24;101598.00;;;21.62;68.05
61026;BME280;46911;32.650;-16.902;2022-07-22T09:10:34;101626.13;;;21.79;67.56
61026;BME280;46911;32.650;-16.902;2022-07-22T09:12:55;101626.91;;;21.89;67.88
61026;BME280;46911;32.650;-16.902;2022-07-22T09:15:15;101624.06;;;22.17;67.46
61026;BME280;46911;32.650;-16.902;2022-07-22T09:19:49;101618.25;;;22.99;65.23
61026;BME280;46911;32.650;-16.902;2022-07-22T09:22:17;101598.22;;;23.08;64.04
61026;BME280;46911;32.650;-16.902;2022-07-22T09:24:40;101608.22;;;23.67;63.12
61026;BME280;46911;32.650;-16.902;2022-07-22T09:26:59;101593.41;;;23.78;62.49
61026;BME280;46911;32.650;-16.902;2022-07-22T09:29:07;101598.69;;;24.21;60.54
61026;BME280;46911;32.650;-16.902;2022-07-22T09:31:29;101585.94;;;24.21;60.95
61026;BME280;46911;32.650;-16.902;2022-07-22T09:33:58;101588.88;;;24.60;58.74
61026;BME280;46911;32.650;-16.902;2022-07-22T09:36:06;101606.78;;;24.70;59.57
61026;BME280;46911;32.650;-16.902;2022-07-22T09:38:12;101585.22;;;24.36;59.93
61026;BME280;46911;32.650;-16.902;2022-07-22T09:40:23;101585.03;;;24.46;59.86
61026;BME280;46911;32.650;-16.902;2022-07-22T09:42:27;101581.97;;;24.40;59.73
61026;BME280;46911;32.650;-16.902;2022-07-22T09:44:50;101588.47;;;24.31;60.31
61026;BME280;46911;32.650;-16.902;2022-07-22T09:47:27;101597.59;;;24.55;59.02
61026;BME280;46911;32.650;-16.902;2022-07-22T09:50:03;101571.47;;;24.13;59.68
61026;BME280;46911;32.650;-16.902;2022-07-22T09:52:16;101560.81;;;24.51;59.19
61026;BME280;46911;32.650;-16.902;2022-07-22T09:54:39;101588.66;;;24.86;57.85
61026;BME280;46911;32.650;-16.902;2022-07-22T09:56:47;101605.25;;;24.60;59.25
61026;BME280;46911;32.650;-16.902;2022-07-22T09:58:53;101602.16;;;24.79;59.17
61026;BME280;46911;32.650;-16.902;2022-07-22T10:01:08;101603.91;;;24.72;59.12
61026;BME280;46911;32.650;-16.902;2022-07-22T10:03:18;101608.44;;;24.80;59.53
61026;BME280;46911;32.650;-16.902;2022-07-22T10:05:22;101611.88;;;25.13;58.35
61026;BME280;46911;32.650;-16.902;2022-07-22T10:07:26;101606.31;;;25.61;56.63
61026;BME280;46911;32.650;-16.902;2022-07-22T10:09:28;101599.44;;;25.65;56.07
61026;BME280;46911;32.650;-16.902;2022-07-22T10:11:32;101615.50;;;26.30;54.44
61026;BME280;46911;32.650;-16.902;2022-07-22T10:13:35;101597.53;;;25.51;56.00
61026;BME280;46911;32.650;-16.902;2022-07-22T10:15:43;101609.19;;;25.83;55.71
61026;BME280;46911;32.650;-16.902;2022-07-22T10:17:47;101608.06;;;26.00;55.20
61026;BME280;46911;32.650;-16.902;2022-07-22T10:19:49;101621.59;;;26.32;54.92
61026;BME280;46911;32.650;-16.902;2022-07-22T10:21:50;101606.25;;;25.46;56.61
61026;BME280;46911;32.650;-16.902;2022-07-22T10:26:14;101610.75;;;25.39;57.20
61026;BME280;46911;32.650;-16.902;2022-07-22T10:28:26;101619.53;;;26.64;53.62
61026;BME280;46911;32.650;-16.902;2022-07-22T10:30:30;101621.31;;;26.42;53.79
61026;BME280;46911;32.650;-16.902;2022-07-22T10:32:37;101608.84;;;26.24;54.05
61026;BME280;46911;32.650;-16.902;2022-07-22T10:34:38;101624.13;;;26.71;52.99
61026;BME280;46911;32.650;-16.902;2022-07-22T10:36:41;101630.03;;;26.90;52.42
61026;BME280;46911;32.650;-16.902;2022-07-22T10:39:22;101619.78;;;27.14;52.08
61026;BME280;46911;32.650;-16.902;2022-07-22T10:41:41;101628.47;;;26.13;54.76
61026;BME280;46911;32.650;-16.902;2022-07-22T10:43:45;101634.78;;;26.28;55.08